Gangu, China
Current Conditions -  °F | °C
As of 10:00 AM on Thursday 23 Oct 2014 (Local Time) from ZLLL Reporting Station
Clear Clear  
Wind Chill: 50°   Ceiling: Unl
Heat Index: 50°   Visibility: 6mi
Dew Point: 34°   Wind: 4mph
Humidity: 54%   Direction: 160°SSE
Pressure: 30.27"   Gusts: NA
Location:  34.75°N, 105.2°E
Report Text: ZLLL 230200Z 16002MPS 110V190 CAVOK 10/01 Q1025 NOSIG
Loading
Personal Weather Stations






























Interactive Weather Map
Tropical Storm Tracking
New forecast layout! Learn more

10-Day Weather Forecast

Advertisements
Track Severe Weather on mobile